createdAt,value
2022-10-19T00:00:09.555Z,479.40
2022-10-19T00:02:57.426Z,455.95
2022-10-19T00:05:45.318Z,466.52
2022-10-19T00:08:34.637Z,443.30
2022-10-19T00:11:23.667Z,457.40
2022-10-19T00:14:14.975Z,439.75
2022-10-19T00:17:02.979Z,459.58
2022-10-19T00:19:50.959Z,453.55
2022-10-19T00:22:39.265Z,447.88
2022-10-19T00:25:28.625Z,441.92
2022-10-19T00:28:16.545Z,447.83
2022-10-19T00:31:05.896Z,448.50
2022-10-19T00:33:54.728Z,468.70
2022-10-19T00:36:42.625Z,471.75
2022-10-19T00:39:30.695Z,460.55
2022-10-19T00:42:19.928Z,488.88
2022-10-19T00:45:14.525Z,487.38
2022-10-19T00:48:02.514Z,485.80
2022-10-19T00:50:51.980Z,482.27
2022-10-19T00:53:40.325Z,456.50
2022-10-19T00:56:28.274Z,482.10
2022-10-19T00:59:22.029Z,477.52
2022-10-19T01:02:10.032Z,485.55
2022-10-19T01:04:59.286Z,458.55
2022-10-19T01:07:47.222Z,475.45
2022-10-19T01:10:46.651Z,465.52
2022-10-19T01:13:44.953Z,464.17
2022-10-19T01:16:41.713Z,472.10
2022-10-19T01:19:51.962Z,481.60
2022-10-19T01:22:56.624Z,489.73
2022-10-19T01:25:55.470Z,475.85
2022-10-19T01:28:56.333Z,481.48
2022-10-19T01:31:50.497Z,464.08
2022-10-19T01:34:47.183Z,487.63
2022-10-19T01:37:41.005Z,504.58
2022-10-19T01:40:34.438Z,498.48
2022-10-19T01:43:34.336Z,496.08
2022-10-19T01:46:28.253Z,490.20
2022-10-19T01:49:21.674Z,481.27
2022-10-19T01:52:14.238Z,496.33
2022-10-19T01:55:04.414Z,494.48
2022-10-19T01:57:59.146Z,466.05
2022-10-19T02:00:50.725Z,504.55
2022-10-19T02:03:40.097Z,499.48
2022-10-19T02:06:29.500Z,472.77
2022-10-19T02:09:18.534Z,467.20
2022-10-19T02:12:10.357Z,470.73
2022-10-19T02:15:02.554Z,492.90
2022-10-19T02:17:53.445Z,490.48
2022-10-19T02:20:41.396Z,463.45
2022-10-19T02:23:30.910Z,467.83
2022-10-19T02:26:19.461Z,499.48
2022-10-19T02:29:07.862Z,482.80
2022-10-19T02:31:55.857Z,464.10
2022-10-19T02:34:43.822Z,466.05
2022-10-19T02:37:31.744Z,467.10
2022-10-19T02:40:22.010Z,457.08
2022-10-19T02:43:13.898Z,436.13
2022-10-19T02:46:06.569Z,455.77
2022-10-19T02:48:56.080Z,428.95
2022-10-19T02:51:59.485Z,420.33
2022-10-19T02:54:47.466Z,430.25
2022-10-19T02:57:37.403Z,425.05
2022-10-19T03:00:25.464Z,432.88
2022-10-19T03:03:13.415Z,426.88
2022-10-19T03:06:01.329Z,439.55
2022-10-19T03:08:49.263Z,423.40
2022-10-19T03:11:37.383Z,429.33
2022-10-19T03:14:26.673Z,444.45
2022-10-19T03:17:14.736Z,431.88
2022-10-19T03:20:02.798Z,461.02
2022-10-19T03:25:44.256Z,428.42
2022-10-19T03:28:33.182Z,451.52
2022-10-19T03:31:22.462Z,454.05
2022-10-19T03:34:10.355Z,463.02
2022-10-19T03:36:59.215Z,460.05
2022-10-19T03:39:47.202Z,473.58
2022-10-19T03:42:35.167Z,458.52
2022-10-19T03:45:23.099Z,489.92
2022-10-19T03:48:12.326Z,468.23
2022-10-19T03:51:00.961Z,471.35
2022-10-19T03:53:52.655Z,457.42
2022-10-19T03:56:40.577Z,494.73
2022-10-19T03:59:28.578Z,480.33
2022-10-19T04:02:16.528Z,499.85
2022-10-19T04:05:06.786Z,469.73
2022-10-19T04:07:54.677Z,479.73
2022-10-19T04:10:42.588Z,478.77
2022-10-19T04:13:31.406Z,481.35
2022-10-19T04:16:20.198Z,466.42
2022-10-19T04:19:08.202Z,472.33
2022-10-19T04:21:57.492Z,483.15
2022-10-19T04:24:45.398Z,446.38
2022-10-19T04:27:33.634Z,497.67
2022-10-19T04:30:21.791Z,461.15
2022-10-19T04:33:09.761Z,489.75
2022-10-19T04:35:59.432Z,492.63
2022-10-19T04:38:48.849Z,462.55
2022-10-19T04:41:38.447Z,482.60
2022-10-19T04:44:26.405Z,480.17
2022-10-19T04:47:14.352Z,488.17
2022-10-19T04:50:02.327Z,475.17
2022-10-19T04:52:50.230Z,500.15
2022-10-19T04:55:42.762Z,476.70
2022-10-19T04:58:30.668Z,481.70
2022-10-19T05:01:20.863Z,481.08
2022-10-19T05:04:11.056Z,456.52
2022-10-19T05:06:59.003Z,474.73
2022-10-19T05:09:46.879Z,455.27
2022-10-19T05:12:37.041Z,489.98
2022-10-19T05:15:24.979Z,462.80
2022-10-19T05:18:12.888Z,482.10
2022-10-19T05:21:05.779Z,476.67
2022-10-19T05:23:54.808Z,465.35
2022-10-19T05:26:42.711Z,452.63
2022-10-19T05:29:33.759Z,462.77
2022-10-19T05:32:21.678Z,464.67
2022-10-19T05:35:09.959Z,470.58
2022-10-19T05:37:57.967Z,472.80
2022-10-19T05:40:50.367Z,459.80
2022-10-19T05:43:42.922Z,466.30
2022-10-19T05:46:33.735Z,449.75
2022-10-19T05:49:23.146Z,480.88
2022-10-19T05:52:11.061Z,456.63
2022-10-19T05:54:59.222Z,475.15
2022-10-19T05:57:47.157Z,486.13
2022-10-19T06:00:35.100Z,457.52
2022-10-19T06:03:25.871Z,447.48
2022-10-19T06:05:54.008Z,473.17
2022-10-19T06:08:23.509Z,465.42
2022-10-19T06:10:51.637Z,484.05
2022-10-19T06:13:20.602Z,440.35
2022-10-19T06:15:52.148Z,456.02
2022-10-19T06:18:20.302Z,472.40
2022-10-19T06:20:49.239Z,466.90
2022-10-19T06:23:16.846Z,468.35
2022-10-19T06:25:44.525Z,459.45
2022-10-19T06:28:12.279Z,466.08
2022-10-19T06:30:40.742Z,459.27
2022-10-19T06:33:09.022Z,454.83
2022-10-19T06:35:38.280Z,433.67
2022-10-19T06:38:07.270Z,445.08
2022-10-19T06:40:35.605Z,423.52
2022-10-19T06:43:03.330Z,428.55
2022-10-19T06:45:35.526Z,448.63
2022-10-19T06:48:06.750Z,421.75
2022-10-19T06:50:35.661Z,452.98
2022-10-19T06:53:03.323Z,425.95
2022-10-19T06:55:32.309Z,447.83
2022-10-19T06:58:01.591Z,452.90
2022-10-19T07:00:30.241Z,486.45
2022-10-19T07:02:59.505Z,462.85
2022-10-19T07:05:27.327Z,475.00
2022-10-19T07:07:55.009Z,463.45
2022-10-19T07:10:22.673Z,491.23
2022-10-19T07:12:51.667Z,489.27
2022-10-19T07:15:19.313Z,474.02
2022-10-19T07:17:46.921Z,481.95
2022-10-19T07:20:14.582Z,496.65
2022-10-19T07:22:42.213Z,488.00
2022-10-19T07:25:10.155Z,496.70
2022-10-19T07:27:40.040Z,496.77
2022-10-19T07:30:09.937Z,472.80
2022-10-19T07:32:37.603Z,522.22
2022-10-19T07:35:06.145Z,488.38
2022-10-19T07:37:34.036Z,498.35
2022-10-19T07:40:01.812Z,495.00
2022-10-19T07:42:30.331Z,516.47
2022-10-19T07:44:57.932Z,503.27
2022-10-19T07:47:27.078Z,490.40
2022-10-19T07:49:54.766Z,507.35
2022-10-19T07:52:22.463Z,486.10
2022-10-19T07:54:50.091Z,491.10
2022-10-19T07:57:17.871Z,498.60
2022-10-19T07:59:45.513Z,489.73
2022-10-19T08:02:16.750Z,504.65
2022-10-19T08:05:00.405Z,519.70
2022-10-19T08:07:29.734Z,526.03
2022-10-19T08:09:57.421Z,508.77
2022-10-19T08:12:25.107Z,503.95
2022-10-19T08:14:54.317Z,498.75
2022-10-19T08:17:21.934Z,506.35
2022-10-19T08:19:50.909Z,517.10
2022-10-19T08:22:18.538Z,517.72
2022-10-19T08:24:46.215Z,483.85
2022-10-19T08:27:14.745Z,517.92
2022-10-19T08:29:42.414Z,488.98
2022-10-19T08:32:10.267Z,502.00
2022-10-19T08:34:38.048Z,503.55
2022-10-19T08:37:19.703Z,466.80
2022-10-19T08:39:54.642Z,475.70
2022-10-19T08:42:25.863Z,493.50
2022-10-19T08:45:16.331Z,470.55
2022-10-19T08:47:59.062Z,466.75
2022-10-19T08:50:29.438Z,465.23
2022-10-19T08:53:02.838Z,448.00
2022-10-19T08:55:40.979Z,461.40
2022-10-19T08:58:22.309Z,490.67
2022-10-19T09:00:59.671Z,493.30
2022-10-19T09:03:54.981Z,486.38
2022-10-19T09:06:28.190Z,484.23
2022-10-19T09:08:58.568Z,490.20
2022-10-19T09:11:29.588Z,513.95
2022-10-19T09:14:05.697Z,504.73
2022-10-19T09:16:34.736Z,528.13
2022-10-19T09:19:02.686Z,503.88
2022-10-19T09:21:45.915Z,508.02
2022-10-19T09:24:28.595Z,485.42
2022-10-19T09:26:59.720Z,484.50
2022-10-19T09:29:38.109Z,509.35
2022-10-19T09:32:13.101Z,486.13
2022-10-19T09:34:45.523Z,487.38
2022-10-19T09:37:20.165Z,490.23
2022-10-19T09:39:55.019Z,487.85
2022-10-19T09:42:28.997Z,501.58
2022-10-19T09:44:59.090Z,474.27
2022-10-19T09:47:35.777Z,474.40
2022-10-19T09:50:14.806Z,465.98
2022-10-19T09:52:44.952Z,484.45
2022-10-19T09:55:27.051Z,461.08
2022-10-19T09:58:01.870Z,510.42
2022-10-19T10:00:39.493Z,477.38
2022-10-19T10:03:07.603Z,476.80
2022-10-19T10:05:37.777Z,488.65
2022-10-19T10:08:13.614Z,496.70
2022-10-19T10:10:46.777Z,511.10
2022-10-19T10:13:18.821Z,503.92
2022-10-19T10:15:49.825Z,520.17
2022-10-19T10:18:19.669Z,514.40
2022-10-19T10:21:00.555Z,517.40
2022-10-19T10:23:31.533Z,512.55
2022-10-19T10:26:01.588Z,500.55
2022-10-19T10:28:30.781Z,524.25
2022-10-19T10:31:03.636Z,518.80
2022-10-19T10:33:44.201Z,507.90
2022-10-19T10:36:13.481Z,521.60
2022-10-19T10:38:46.474Z,505.63
2022-10-19T10:41:18.114Z,508.80
2022-10-19T10:43:57.504Z,509.42
2022-10-19T10:46:30.033Z,526.05
2022-10-19T10:49:00.099Z,504.85
2022-10-19T10:51:34.429Z,520.08
2022-10-19T10:54:16.740Z,526.35
2022-10-19T10:57:01.852Z,527.00
2022-10-19T10:59:41.678Z,521.63
2022-10-19T11:04:59.882Z,528.17
2022-10-19T11:07:30.115Z,531.58
2022-10-19T11:09:59.623Z,530.22
2022-10-19T11:12:36.981Z,512.17
2022-10-19T11:15:13.662Z,515.05
2022-10-19T11:17:55.463Z,514.38
2022-10-19T11:20:25.766Z,526.50
2022-10-19T11:22:58.827Z,537.22
2022-10-19T11:25:37.477Z,525.92
2022-10-19T11:28:20.431Z,511.05
2022-10-19T11:30:56.898Z,512.33
2022-10-19T11:33:39.160Z,510.13
2022-10-19T11:36:17.365Z,505.25
2022-10-19T11:38:53.921Z,517.00
2022-10-19T11:41:31.633Z,531.80
2022-10-19T11:44:21.051Z,506.90
2022-10-19T11:46:58.238Z,500.27
2022-10-19T11:49:41.445Z,507.05
2022-10-19T11:52:16.906Z,483.08
2022-10-19T11:54:59.212Z,498.92
2022-10-19T11:57:32.261Z,536.92
2022-10-19T12:00:15.460Z,546.53
2022-10-19T12:03:19.457Z,524.90
2022-10-19T12:05:57.174Z,509.85
2022-10-19T12:08:38.292Z,546.67
2022-10-19T12:11:19.038Z,526.80
2022-10-19T12:13:51.992Z,538.13
2022-10-19T12:16:26.258Z,516.28
2022-10-19T12:19:00.339Z,533.85
2022-10-19T12:21:31.523Z,540.40
2022-10-19T12:24:02.800Z,535.55
2022-10-19T12:26:35.006Z,517.67
2022-10-19T12:29:06.449Z,503.88
2022-10-19T12:31:36.957Z,514.75
2022-10-19T12:34:10.922Z,502.63
2022-10-19T12:36:44.302Z,493.00
2022-10-19T12:39:18.565Z,501.83
2022-10-19T12:41:53.073Z,494.02
2022-10-19T12:44:58.753Z,504.83
2022-10-19T12:47:28.007Z,509.38
2022-10-19T12:49:58.918Z,484.13
2022-10-19T12:52:44.283Z,482.33
2022-10-19T12:55:27.752Z,484.20
2022-10-19T12:58:02.373Z,490.65
2022-10-19T13:00:32.700Z,473.40
2022-10-19T13:03:05.750Z,499.10
2022-10-19T13:05:35.532Z,483.67
2022-10-19T13:08:08.001Z,467.08
2022-10-19T13:10:38.604Z,483.15
2022-10-19T13:13:06.584Z,505.98
2022-10-19T13:15:55.124Z,500.05
2022-10-19T13:19:06.054Z,505.30
2022-10-19T13:21:53.097Z,483.63
2022-10-19T13:24:29.054Z,491.00
2022-10-19T13:27:26.142Z,507.80
2022-10-19T13:29:53.811Z,480.85
2022-10-19T13:32:33.385Z,490.95
2022-10-19T13:35:31.399Z,504.80
2022-10-19T13:38:24.097Z,489.33
2022-10-19T13:41:02.199Z,477.95
2022-10-19T13:43:32.975Z,477.85
2022-10-19T13:46:07.057Z,502.30
2022-10-19T13:48:46.856Z,473.58
2022-10-19T13:51:21.654Z,472.50
2022-10-19T13:54:01.224Z,501.23
2022-10-19T13:57:00.638Z,493.55
2022-10-19T14:00:12.858Z,490.10
2022-10-19T14:02:56.866Z,466.80
2022-10-19T14:05:44.870Z,489.40
2022-10-19T14:08:31.102Z,456.38
2022-10-19T14:11:04.152Z,502.60
2022-10-19T14:13:32.678Z,510.40
2022-10-19T14:16:02.842Z,468.85
2022-10-19T14:18:33.422Z,493.00
2022-10-19T14:21:02.951Z,452.92
2022-10-19T14:23:33.092Z,496.25
2022-10-19T14:26:05.375Z,482.70
2022-10-19T14:28:34.410Z,479.25
2022-10-19T14:31:04.246Z,503.17
2022-10-19T14:33:35.449Z,495.85
2022-10-19T14:36:03.542Z,507.40
2022-10-19T14:38:35.248Z,505.92
2022-10-19T14:41:05.528Z,528.13
2022-10-19T14:43:35.236Z,499.92
2022-10-19T14:46:11.864Z,548.30
2022-10-19T14:48:40.932Z,497.88
2022-10-19T14:51:17.438Z,501.35
2022-10-19T14:53:48.493Z,526.67
2022-10-19T14:56:22.500Z,488.90
2022-10-19T14:58:54.535Z,516.13
2022-10-19T15:01:22.765Z,481.17
2022-10-19T15:03:51.362Z,506.38
2022-10-19T15:06:23.691Z,516.13
2022-10-19T15:11:31.127Z,498.00
2022-10-19T15:14:03.602Z,495.35
2022-10-19T15:16:34.805Z,495.08
2022-10-19T15:19:07.082Z,513.38
2022-10-19T15:21:34.743Z,496.73
2022-10-19T15:24:16.611Z,505.95
2022-10-19T15:27:06.589Z,483.23
2022-10-19T15:29:36.622Z,478.27
2022-10-19T15:32:15.390Z,497.08
2022-10-19T15:34:44.945Z,512.65
2022-10-19T15:37:19.712Z,515.78
2022-10-19T15:39:48.528Z,480.05
2022-10-19T15:42:37.389Z,505.30
2022-10-19T15:45:06.117Z,495.25
2022-10-19T15:47:34.596Z,501.00
2022-10-19T15:50:03.856Z,463.85
2022-10-19T15:52:34.187Z,477.45
2022-10-19T15:55:02.925Z,515.47
2022-10-19T15:57:34.463Z,464.63
2022-10-19T16:00:07.798Z,485.50
2022-10-19T16:02:35.506Z,471.60
2022-10-19T16:05:03.219Z,454.77
2022-10-19T16:07:33.270Z,464.40
2022-10-19T16:10:01.252Z,455.10
2022-10-19T16:12:28.890Z,467.55
2022-10-19T16:14:57.867Z,481.67
2022-10-19T16:17:25.660Z,423.13
2022-10-19T16:19:53.285Z,427.80
2022-10-19T16:22:21.271Z,448.80
2022-10-19T16:24:48.982Z,426.55
2022-10-19T16:27:16.958Z,432.50
2022-10-19T16:29:45.238Z,446.90
2022-10-19T16:32:14.397Z,458.77
2022-10-19T16:34:42.231Z,437.20
2022-10-19T16:37:09.822Z,444.02
2022-10-19T16:39:37.459Z,447.17
2022-10-19T16:42:05.244Z,440.10
2022-10-19T16:44:33.026Z,464.50
2022-10-19T16:47:00.721Z,453.13
2022-10-19T16:49:29.880Z,448.00
2022-10-19T16:51:57.872Z,449.33
2022-10-19T16:54:26.438Z,454.35
2022-10-19T16:56:55.453Z,418.17
2022-10-19T16:59:23.521Z,432.65
2022-10-19T17:01:51.468Z,448.55
2022-10-19T17:04:19.209Z,458.17
2022-10-19T17:06:48.465Z,431.27
2022-10-19T17:12:04.111Z,409.77
2022-10-19T17:14:31.891Z,445.58
2022-10-19T17:16:59.717Z,432.52
2022-10-19T17:19:27.368Z,419.98
2022-10-19T17:21:57.574Z,424.65
2022-10-19T17:24:25.627Z,425.98
2022-10-19T17:26:54.019Z,415.38
2022-10-19T17:29:23.288Z,419.35
2022-10-19T17:31:51.529Z,393.75
2022-10-19T17:34:19.400Z,420.13
2022-10-19T17:36:47.295Z,400.80
2022-10-19T17:39:18.614Z,399.45
2022-10-19T17:41:46.800Z,383.00
2022-10-19T17:44:14.903Z,404.00
2022-10-19T17:46:42.678Z,386.83
2022-10-19T17:49:11.086Z,416.02
2022-10-19T17:51:39.638Z,402.20
2022-10-19T17:54:09.385Z,432.88
2022-10-19T17:56:39.099Z,402.65
2022-10-19T17:59:07.934Z,400.92
2022-10-19T18:01:36.995Z,395.73
2022-10-19T18:04:05.720Z,423.55
2022-10-19T18:06:35.656Z,415.58
2022-10-19T18:09:05.827Z,402.23
2022-10-19T18:11:36.932Z,411.85
2022-10-19T18:14:07.830Z,398.02
2022-10-19T18:16:37.792Z,413.08
2022-10-19T18:19:07.154Z,405.77
2022-10-19T18:21:38.360Z,402.27
2022-10-19T18:24:09.062Z,400.60
2022-10-19T18:26:40.049Z,385.77
2022-10-19T18:29:13.460Z,389.75
2022-10-19T18:31:41.281Z,412.65
2022-10-19T18:34:14.384Z,438.95
2022-10-19T18:36:42.786Z,411.98
2022-10-19T18:39:11.463Z,416.35
2022-10-19T18:41:40.390Z,396.50
2022-10-19T18:44:09.731Z,416.25
2022-10-19T18:46:38.753Z,389.60
2022-10-19T18:49:09.112Z,391.80
2022-10-19T18:51:37.438Z,409.90
2022-10-19T18:54:05.558Z,401.83
2022-10-19T18:56:36.311Z,390.15
2022-10-19T18:59:04.338Z,390.25
2022-10-19T19:01:32.268Z,387.02
2022-10-19T19:04:07.628Z,416.90
2022-10-19T19:06:36.231Z,399.83
2022-10-19T19:09:06.693Z,419.60
2022-10-19T19:11:37.382Z,410.85
2022-10-19T19:14:07.609Z,389.63
2022-10-19T19:16:37.847Z,419.27
2022-10-19T19:19:07.671Z,392.55
2022-10-19T19:21:36.567Z,430.35
2022-10-19T19:24:06.695Z,409.27
2022-10-19T19:26:36.386Z,412.35
2022-10-19T19:29:04.852Z,388.88
2022-10-19T19:31:32.742Z,397.52
2022-10-19T19:34:01.773Z,419.17
2022-10-19T19:36:30.856Z,387.10
2022-10-19T19:38:59.129Z,388.70
2022-10-19T19:41:28.736Z,410.75
2022-10-19T19:43:57.496Z,376.40
2022-10-19T19:46:25.328Z,414.88
2022-10-19T19:49:00.045Z,388.45
2022-10-19T19:51:28.547Z,405.08
2022-10-19T19:53:58.128Z,398.00
2022-10-19T19:56:26.289Z,409.00
2022-10-19T19:58:56.776Z,409.75
2022-10-19T20:01:24.575Z,387.33
2022-10-19T20:04:11.704Z,368.10
2022-10-19T20:06:57.720Z,390.30
2022-10-19T20:09:47.032Z,376.98
2022-10-19T20:12:34.939Z,387.67
2022-10-19T20:15:22.937Z,386.80
2022-10-19T20:18:10.873Z,376.35
2022-10-19T20:21:02.069Z,403.45
2022-10-19T20:23:50.716Z,396.58
2022-10-19T20:26:40.167Z,376.75
2022-10-19T20:29:28.106Z,380.65
2022-10-19T20:32:15.999Z,413.58
2022-10-19T20:35:04.614Z,388.95
2022-10-19T20:37:52.582Z,379.55
2022-10-19T20:40:41.456Z,388.08
2022-10-19T20:43:30.774Z,374.83
2022-10-19T20:46:22.112Z,410.08
2022-10-19T20:49:12.573Z,397.15
2022-10-19T20:52:00.519Z,402.65
2022-10-19T20:54:49.044Z,417.83
2022-10-19T20:57:36.948Z,416.77
2022-10-19T21:00:26.309Z,408.95
2022-10-19T21:03:14.267Z,419.38
2022-10-19T21:06:06.564Z,409.60
2022-10-19T21:08:54.888Z,390.65
2022-10-19T21:11:44.236Z,425.40
2022-10-19T21:14:32.178Z,413.13
2022-10-19T21:17:21.509Z,407.40
2022-10-19T21:20:10.205Z,411.35
2022-10-19T21:22:59.056Z,396.02
2022-10-19T21:25:58.080Z,411.45
2022-10-19T21:28:50.662Z,410.27
2022-10-19T21:31:39.758Z,399.67
2022-10-19T21:34:30.855Z,405.58
2022-10-19T21:37:18.778Z,418.42
2022-10-19T21:40:07.707Z,413.13
2022-10-19T21:42:55.617Z,405.92
2022-10-19T21:45:43.505Z,396.02
2022-10-19T21:48:32.483Z,434.92
2022-10-19T21:51:29.076Z,425.10
2022-10-19T21:54:19.424Z,386.83
2022-10-19T21:57:07.290Z,415.20
2022-10-19T21:59:55.161Z,392.05
2022-10-19T22:02:42.996Z,392.13
2022-10-19T22:05:30.875Z,410.55
2022-10-19T22:08:20.191Z,433.17
2022-10-19T22:11:10.109Z,434.38
2022-10-19T22:13:59.703Z,407.00
2022-10-19T22:16:47.610Z,397.30
2022-10-19T22:19:35.564Z,401.42
2022-10-19T22:22:23.610Z,396.52
2022-10-19T22:25:12.815Z,408.55
2022-10-19T22:28:00.873Z,382.42
2022-10-19T22:30:53.783Z,403.65
2022-10-19T22:33:42.210Z,419.95
2022-10-19T22:36:30.342Z,405.77
2022-10-19T22:39:18.664Z,399.83
2022-10-19T22:42:07.875Z,419.42
2022-10-19T22:44:55.740Z,393.52
2022-10-19T22:47:43.579Z,376.65
2022-10-19T22:50:31.451Z,390.02
2022-10-19T22:53:19.293Z,395.33
2022-10-19T22:56:08.579Z,386.02
2022-10-19T22:59:00.783Z,411.83
2022-10-19T23:01:48.701Z,401.83
2022-10-19T23:04:36.652Z,396.42
2022-10-19T23:07:24.632Z,415.73
2022-10-19T23:10:12.601Z,379.70
2022-10-19T23:13:00.468Z,387.83
2022-10-19T23:15:51.761Z,381.85
2022-10-19T23:18:41.656Z,383.08
2022-10-19T23:21:29.568Z,385.75
2022-10-19T23:24:17.517Z,392.10
2022-10-19T23:27:05.836Z,419.85
2022-10-19T23:29:53.760Z,390.60
2022-10-19T23:32:43.012Z,387.85
2022-10-19T23:35:30.921Z,389.52
2022-10-19T23:38:19.057Z,382.05
2022-10-19T23:41:07.590Z,415.10
2022-10-19T23:43:55.522Z,385.95
2022-10-19T23:46:43.421Z,384.58
2022-10-19T23:49:33.029Z,396.55
2022-10-19T23:52:20.933Z,419.30
2022-10-19T23:55:10.005Z,399.60
2022-10-19T23:57:57.941Z,414.40
